KCRE/CRE METAR and TAF weather

Enter ICAO airport designator
Station Type Date Time Source
KCRE METAR 2020/09/30 16:53 UTC NOAA

KCRE 301653Z VRB06KT 10SM CLR 23/12 A3000 RMK AO1 SLP159 T02330122


Station Type Date Time Source
KCRE Decoded METAR 2020/09/30 16:53 UTC NOAA

N. MYRTLE BCH.GRAND STRAND, SC, United States (KCRE) 33-49N 078-43W 10M
Sep 30, 2020 - 12:53 PM EDT / 2020.09.30 1653 UTC
Wind: Variable at 7 MPH (6 KT):0
Visibility: 10 mile(s):0
Sky conditions: clear
Temperature: 73.9 F (23.3 C)
Dew Point: 54.0 F (12.2 C)
Relative Humidity: 49%
Pressure (altimeter): 30 in. Hg (1015 hPa)
ob: KCRE 301653Z VRB06KT 10SM CLR 23/12 A3000 RMK AO1 SLP159 T02330122
cycle: 17

Station Type Date Time Source
KCRE TAF 2020/09/30 12:57 UTC NOAA

TAF KCRE 301154Z 3012/0112 28003KT P6SM BKN006
FM301300 32007KT P6SM FEW250
FM302200 25005KT P6SM SKC

Example: see airport list